Kemsing, United Kingdom
Current Conditions -  °F | °C
As of 11:50 AM on Sunday 25 Jan 2015 (Local Time) from EGKB Reporting Station
Broken Clouds Broken Clouds  
Wind Chill: 37°   Ceiling: 3000
Heat Index: 43°   Visibility: 6mi
Dew Point: 32°   Wind: 9mph
Humidity: 66%   Direction: 240°WSW
Pressure: 30.42"   Gusts: NA
Location:  51.31°N, 0.23°E
Report Text: EGKB 251150Z 24008KT 9999 BKN030 06/M00 Q1030
Loading
Personal Weather Stations






























Interactive Weather Map New forecast layout! Learn more

10-Day Weather Forecast

Advertisements
Track Severe Weather on mobile